Terminal Aerodrome Forecast
Issued by NWS

Home | Current Version | Previous Version | Text Only | Print | Product List | Glossary Off
Versions: 1 2 3 4 5 6 7 8 9 10 11 12 13 14 15 16 17 18 19 20 21 22 23 24 25 26 27 28 29 30 31

000
FTUS43 KABR 240527
TAFPIR
TAF
KPIR 240527Z 2406/2506 07008KT P6SM SCT020 BKN040 OVC120
      TEMPO 2406/2409 P6SM -RA OVC015
     FM240900 07010KT 5SM BR OVC010
     FM241200 05009KT 5SM -RA BR OVC007=

USA.gov is the U.S. government's official web portal to all federal, state and local government web resources and services.